createdAt,value
2023-02-22T00:01:19.232Z,98155.38
2023-02-22T00:03:52.096Z,98153.91
2023-02-22T00:06:25.008Z,98149.88
2023-02-22T00:08:55.793Z,98153.56
2023-02-22T00:11:24.939Z,98146.03
2023-02-22T00:13:57.398Z,98147.72
2023-02-22T00:16:28.554Z,98143.66
2023-02-22T00:18:57.309Z,98149.25
2023-02-22T00:21:25.892Z,98151.47
2023-02-22T00:23:55.481Z,98145.13
2023-02-22T00:26:24.457Z,98141.84
2023-02-22T00:28:54.407Z,98144.22
2023-02-22T00:31:23.736Z,98149.31
2023-02-22T00:33:53.815Z,98141.84
2023-02-22T00:36:22.616Z,98135.81
2023-02-22T00:38:51.246Z,98137.06
2023-02-22T00:41:20.060Z,98137.47
2023-02-22T00:43:49.472Z,98137.72
2023-02-22T00:46:18.293Z,98134.56
2023-02-22T00:48:47.496Z,98132.19
2023-02-22T00:51:17.759Z,98135.81
2023-02-22T00:53:46.500Z,98138.38
2023-02-22T00:56:15.198Z,98132.47
2023-02-22T00:58:44.595Z,98131.78
2023-02-22T01:01:13.370Z,98130.25
2023-02-22T01:03:42.130Z,98122.59
2023-02-22T01:06:11.062Z,98121.03
2023-02-22T01:08:44.585Z,98118.47
2023-02-22T01:11:13.594Z,98116.94
2023-02-22T01:13:45.253Z,98114.50
2023-02-22T01:16:13.991Z,98100.91
2023-02-22T01:18:42.887Z,98113.78
2023-02-22T01:21:11.983Z,98113.75
2023-02-22T01:23:46.308Z,98109.63
2023-02-22T01:26:15.107Z,98108.84
2023-02-22T01:28:43.710Z,98102.28
2023-02-22T01:31:12.533Z,98102.50
2023-02-22T01:33:42.435Z,98098.31
2023-02-22T01:36:11.419Z,98105.50
2023-02-22T01:38:40.325Z,98093.56
2023-02-22T01:41:10.474Z,98102.28
2023-02-22T01:43:39.254Z,98102.91
2023-02-22T01:46:18.157Z,98100.53
2023-02-22T01:48:49.066Z,98087.78
2023-02-22T01:51:20.794Z,98091.22
2023-02-22T01:53:52.829Z,98088.63
2023-02-22T01:56:24.426Z,98084.44
2023-02-22T01:58:56.400Z,98083.47
2023-02-22T02:01:26.334Z,98076.84
2023-02-22T02:03:58.610Z,98074.56
2023-02-22T02:06:27.537Z,98070.38
2023-02-22T02:09:00.959Z,98071.19
2023-02-22T02:11:33.094Z,98070.44
2023-02-22T02:14:01.949Z,98067.88
2023-02-22T02:16:39.260Z,98056.00
2023-02-22T02:19:11.755Z,98057.84
2023-02-22T02:22:09.313Z,98047.91
2023-02-22T02:24:59.172Z,98061.66
2023-02-22T02:27:35.073Z,98054.88
2023-02-22T02:30:26.485Z,98050.66
2023-02-22T02:32:58.880Z,98049.88
2023-02-22T02:35:35.415Z,98049.16
2023-02-22T02:38:11.656Z,98045.81
2023-02-22T02:40:47.468Z,98043.31
2023-02-22T02:43:19.107Z,98037.50
2023-02-22T02:45:50.951Z,98038.53
2023-02-22T02:48:24.849Z,98033.53
2023-02-22T02:50:54.651Z,98033.66
2023-02-22T02:53:26.466Z,98032.97
2023-02-22T02:55:55.293Z,98031.63
2023-02-22T02:58:24.785Z,98024.13
2023-02-22T03:00:58.453Z,98023.34
2023-02-22T03:03:47.744Z,98019.84
2023-02-22T03:06:49.154Z,98015.66
2023-02-22T03:09:25.794Z,98017.53
2023-02-22T03:12:02.093Z,98015.75
2023-02-22T03:14:38.880Z,98014.06
2023-02-22T03:17:16.129Z,98009.78
2023-02-22T03:19:48.994Z,98002.16
2023-02-22T03:22:23.708Z,98006.56
2023-02-22T03:24:58.891Z,97998.94
2023-02-22T03:27:29.932Z,98000.09
2023-02-22T03:30:04.722Z,97999.75
2023-02-22T03:32:38.006Z,97989.56
2023-02-22T03:35:10.957Z,97987.94
2023-02-22T03:37:43.028Z,97995.53
2023-02-22T03:40:15.370Z,97992.28
2023-02-22T03:42:50.016Z,97990.44
2023-02-22T03:45:21.239Z,97992.97
2023-02-22T03:47:53.042Z,97996.28
2023-02-22T03:50:26.648Z,97996.63
2023-02-22T03:52:55.466Z,97995.75
2023-02-22T03:55:29.080Z,97994.97
2023-02-22T03:58:00.530Z,97993.41
2023-02-22T04:00:33.780Z,97996.09
2023-02-22T04:03:03.678Z,97998.09
2023-02-22T04:05:33.858Z,97995.53
2023-02-22T04:08:03.424Z,97994.63
2023-02-22T04:10:33.524Z,97996.25
2023-02-22T04:13:02.183Z,97997.09
2023-02-22T04:15:31.430Z,97994.72
2023-02-22T04:18:05.764Z,97997.19
2023-02-22T04:20:36.081Z,97995.66
2023-02-22T04:23:10.991Z,97991.63
2023-02-22T04:25:41.786Z,97987.31
2023-02-22T04:28:13.729Z,97985.50
2023-02-22T04:30:47.244Z,97983.88
2023-02-22T04:33:18.336Z,97979.84
2023-02-22T04:35:49.269Z,97991.97
2023-02-22T04:38:18.448Z,97991.28
2023-02-22T04:40:47.100Z,97984.59
2023-02-22T04:43:16.596Z,97982.88
2023-02-22T04:45:45.297Z,97984.59
2023-02-22T04:48:13.919Z,97985.69
2023-02-22T04:50:42.724Z,97984.03
2023-02-22T04:53:12.605Z,97971.31
2023-02-22T04:55:41.255Z,97984.03
2023-02-22T04:58:10.505Z,97983.84
2023-02-22T05:00:39.699Z,97977.72
2023-02-22T05:03:09.738Z,97975.00
2023-02-22T05:05:38.289Z,97976.50
2023-02-22T05:08:07.631Z,97976.56
2023-02-22T05:10:37.569Z,97970.03
2023-02-22T05:13:06.475Z,97966.94
2023-02-22T05:15:35.003Z,97961.00
2023-02-22T05:18:03.830Z,97966.69
2023-02-22T05:20:35.200Z,97964.25
2023-02-22T05:23:05.472Z,97961.53
2023-02-22T05:25:36.305Z,97960.56
2023-02-22T05:28:07.096Z,97961.56
2023-02-22T05:30:39.672Z,97966.03
2023-02-22T05:33:08.581Z,97959.16
2023-02-22T05:35:38.068Z,97962.47
2023-02-22T05:38:06.785Z,97957.47
2023-02-22T05:40:36.756Z,97959.25
2023-02-22T05:43:05.545Z,97953.41
2023-02-22T05:45:34.229Z,97951.78
2023-02-22T05:48:03.147Z,97952.75
2023-02-22T05:50:33.060Z,97949.47
2023-02-22T05:53:02.112Z,97952.06
2023-02-22T05:55:30.752Z,97952.28
2023-02-22T05:58:01.646Z,97950.47
2023-02-22T06:00:31.711Z,97945.47
2023-02-22T06:03:01.880Z,97944.97
2023-02-22T06:05:31.089Z,97941.63
2023-02-22T06:08:00.141Z,97942.63
2023-02-22T06:10:29.293Z,97947.69
2023-02-22T06:12:58.319Z,97948.44
2023-02-22T06:15:29.220Z,97947.53
2023-02-22T06:18:00.093Z,97945.97
2023-02-22T06:20:30.062Z,97944.25
2023-02-22T06:22:59.539Z,97943.25
2023-02-22T06:25:31.182Z,97947.63
2023-02-22T06:28:00.262Z,97951.84
2023-02-22T06:30:30.942Z,97959.50
2023-02-22T06:32:59.656Z,97963.81
2023-02-22T06:35:28.329Z,97967.19
2023-02-22T06:37:56.983Z,97968.00
2023-02-22T06:40:29.369Z,97967.91
2023-02-22T06:42:58.346Z,97966.84
2023-02-22T06:45:27.266Z,97974.50
2023-02-22T06:47:57.177Z,97973.56
2023-02-22T06:50:28.781Z,97970.94
2023-02-22T06:52:57.803Z,97981.03
2023-02-22T06:55:28.592Z,97977.63
2023-02-22T06:57:57.351Z,97980.03
2023-02-22T07:00:27.238Z,97976.81
2023-02-22T07:02:57.965Z,97975.06
2023-02-22T07:05:27.871Z,97986.19
2023-02-22T07:08:02.606Z,97982.19
2023-02-22T07:10:33.397Z,97980.53
2023-02-22T07:13:02.069Z,97983.81
2023-02-22T07:15:33.625Z,97981.28
2023-02-22T07:18:03.666Z,97988.84
2023-02-22T07:20:32.851Z,97984.69
2023-02-22T07:23:02.050Z,97988.81
2023-02-22T07:25:30.791Z,97992.34
2023-02-22T07:27:59.695Z,97991.59
2023-02-22T07:30:31.231Z,97988.13
2023-02-22T07:33:02.235Z,97992.34
2023-02-22T07:35:32.305Z,97989.69
2023-02-22T07:38:01.327Z,97993.09
2023-02-22T07:40:30.575Z,97996.44
2023-02-22T07:43:00.749Z,97992.94
2023-02-22T07:45:30.659Z,97997.16
2023-02-22T07:48:00.168Z,97992.88
2023-02-22T07:50:32.196Z,97992.81
2023-02-22T07:53:03.024Z,97995.28
2023-02-22T07:55:32.947Z,98000.34
2023-02-22T07:58:02.966Z,97999.41
2023-02-22T08:00:33.362Z,97998.41
2023-02-22T08:03:02.870Z,97993.09
2023-02-22T08:05:34.412Z,98008.31
2023-02-22T08:08:03.274Z,97998.91
2023-02-22T08:10:32.100Z,98000.66
2023-02-22T08:13:00.905Z,98006.53
2023-02-22T08:15:31.951Z,98003.88
2023-02-22T08:18:01.169Z,98000.31
2023-02-22T08:20:32.626Z,98000.97
2023-02-22T08:23:01.245Z,97991.47
2023-02-22T08:25:31.545Z,97994.72
2023-02-22T08:28:01.775Z,97996.19
2023-02-22T08:30:31.767Z,97985.78
2023-02-22T08:33:02.720Z,97992.41
2023-02-22T08:35:33.683Z,97995.56
2023-02-22T08:38:05.244Z,97996.09
2023-02-22T08:40:35.526Z,97986.44
2023-02-22T08:43:05.156Z,97990.41
2023-02-22T08:45:33.888Z,97994.38
2023-02-22T08:48:02.631Z,97994.94
2023-02-22T08:50:34.078Z,97999.56
2023-02-22T08:53:04.058Z,97993.22
2023-02-22T08:55:33.881Z,97993.94
2023-02-22T08:58:03.800Z,98006.53
2023-02-22T09:00:33.887Z,97985.00
2023-02-22T09:03:02.987Z,97990.00
2023-02-22T09:05:32.198Z,97984.72
2023-02-22T09:08:02.537Z,97990.38
2023-02-22T09:10:34.730Z,97986.66
2023-02-22T09:13:04.055Z,97988.72
2023-02-22T09:15:34.029Z,97988.72
2023-02-22T09:18:02.891Z,97986.69
2023-02-22T09:20:31.807Z,97987.31
2023-02-22T09:23:02.976Z,97979.72
2023-02-22T09:25:31.777Z,97982.81
2023-02-22T09:28:00.503Z,97984.22
2023-02-22T09:30:32.367Z,97981.59
2023-02-22T09:33:03.311Z,97984.81
2023-02-22T09:35:36.146Z,97985.34
2023-02-22T09:38:07.412Z,97990.13
2023-02-22T09:40:44.753Z,97989.34
2023-02-22T09:43:35.775Z,97986.81
2023-02-22T09:46:20.537Z,97979.09
2023-02-22T09:49:07.724Z,97971.53
2023-02-22T09:51:41.269Z,97976.09
2023-02-22T09:54:19.376Z,97975.97
2023-02-22T09:56:49.917Z,97972.34
2023-02-22T09:59:23.705Z,97972.78
2023-02-22T10:01:59.269Z,97969.22
2023-02-22T10:04:35.616Z,97966.50
2023-02-22T10:07:11.340Z,97966.22
2023-02-22T10:09:43.596Z,97967.75
2023-02-22T10:12:15.427Z,97959.53
2023-02-22T10:15:27.928Z,97963.09
2023-02-22T10:18:03.387Z,97963.56
2023-02-22T10:20:44.118Z,97956.19
2023-02-22T10:23:19.868Z,97957.38
2023-02-22T10:25:53.792Z,97957.84
2023-02-22T10:28:25.270Z,97951.38
2023-02-22T10:30:59.042Z,97948.13
2023-02-22T10:33:32.163Z,97956.13
2023-02-22T10:36:01.158Z,97945.69
2023-02-22T10:38:34.576Z,97942.31
2023-02-22T10:41:20.372Z,97937.91
2023-02-22T10:43:48.996Z,97937.59
2023-02-22T10:46:21.569Z,97935.44
2023-02-22T10:48:52.826Z,97940.25
2023-02-22T10:51:21.636Z,97941.44
2023-02-22T10:53:59.841Z,97935.81
2023-02-22T10:56:30.397Z,97934.53
2023-02-22T10:59:02.373Z,97935.97
2023-02-22T11:01:37.646Z,97923.06
2023-02-22T11:04:12.300Z,97922.81
2023-02-22T11:06:42.522Z,97912.63
2023-02-22T11:09:14.154Z,97923.78
2023-02-22T11:11:46.272Z,97918.84
2023-02-22T11:14:26.009Z,97917.31
2023-02-22T11:17:01.356Z,97919.16
2023-02-22T11:19:31.267Z,97913.91
2023-02-22T11:22:10.284Z,97924.47
2023-02-22T11:24:49.283Z,97917.59
2023-02-22T11:27:32.365Z,97916.88
2023-02-22T11:30:20.617Z,97909.75
2023-02-22T11:32:51.022Z,97909.97
2023-02-22T11:35:40.860Z,97902.34
2023-02-22T11:38:28.352Z,97897.72
2023-02-22T11:41:11.173Z,97898.84
2023-02-22T11:43:41.740Z,97900.22
2023-02-22T11:46:14.878Z,97892.84
2023-02-22T11:48:48.510Z,97888.38
2023-02-22T11:51:22.353Z,97889.53
2023-02-22T11:54:13.287Z,97878.41
2023-02-22T11:56:46.265Z,97878.72
2023-02-22T11:59:26.453Z,97869.56
2023-02-22T12:01:59.953Z,97872.34
2023-02-22T12:04:56.282Z,97861.41
2023-02-22T12:07:42.203Z,97864.09
2023-02-22T12:10:21.046Z,97862.44
2023-02-22T12:13:01.741Z,97850.13
2023-02-22T12:15:35.981Z,97849.91
2023-02-22T12:18:10.093Z,97841.69
2023-02-22T12:20:40.907Z,97844.66
2023-02-22T12:23:19.558Z,97834.16
2023-02-22T12:25:58.632Z,97835.59
2023-02-22T12:28:34.781Z,97838.56
2023-02-22T12:31:13.166Z,97836.00
2023-02-22T12:33:50.527Z,97843.03
2023-02-22T12:36:22.009Z,97841.38
2023-02-22T12:38:54.180Z,97836.50
2023-02-22T12:41:28.918Z,97837.53
2023-02-22T12:43:58.711Z,97840.59
2023-02-22T12:46:31.973Z,97833.28
2023-02-22T12:49:15.859Z,97830.13
2023-02-22T12:51:49.642Z,97832.56
2023-02-22T12:54:23.495Z,97820.44
2023-02-22T12:56:55.806Z,97830.25
2023-02-22T12:59:31.042Z,97830.47
2023-02-22T13:02:06.268Z,97837.09
2023-02-22T13:04:36.949Z,97832.28
2023-02-22T13:07:15.371Z,97823.41
2023-02-22T13:10:09.659Z,97823.44
2023-02-22T13:12:42.281Z,97822.31
2023-02-22T13:15:18.552Z,97827.72
2023-02-22T13:17:55.396Z,97823.44
2023-02-22T13:20:27.964Z,97814.81
2023-02-22T13:23:02.631Z,97817.03
2023-02-22T13:25:38.160Z,97817.97
2023-02-22T13:28:23.251Z,97818.88
2023-02-22T13:30:56.370Z,97818.38
2023-02-22T13:33:39.617Z,97812.41
2023-02-22T13:36:23.736Z,97808.94
2023-02-22T13:39:32.958Z,97814.75
2023-02-22T13:42:27.131Z,97803.16
2023-02-22T13:45:28.696Z,97800.03
2023-02-22T13:48:18.368Z,97798.59
2023-02-22T13:51:04.899Z,97799.13
2023-02-22T13:53:43.652Z,97791.50
2023-02-22T13:56:12.746Z,97795.75
2023-02-22T13:58:54.975Z,97788.47
2023-02-22T14:01:45.651Z,97793.31
2023-02-22T14:04:45.822Z,97797.44
2023-02-22T14:07:57.143Z,97799.25
2023-02-22T14:10:50.120Z,97800.03
2023-02-22T14:13:20.001Z,97801.09
2023-02-22T14:16:20.115Z,97804.66
2023-02-22T14:18:51.132Z,97791.41
2023-02-22T14:21:21.535Z,97795.22
2023-02-22T14:23:51.329Z,97795.06
2023-02-22T14:26:28.930Z,97787.53
2023-02-22T14:28:59.853Z,97791.78
2023-02-22T14:31:36.432Z,97790.97
2023-02-22T14:34:10.890Z,97787.09
2023-02-22T14:36:52.691Z,97795.69
2023-02-22T14:39:25.464Z,97790.09
2023-02-22T14:42:01.433Z,97788.91
2023-02-22T14:44:35.899Z,97790.81
2023-02-22T14:47:08.193Z,97784.03
2023-02-22T14:49:46.100Z,97800.09
2023-02-22T14:52:22.754Z,97793.00
2023-02-22T14:54:59.847Z,97796.38
2023-02-22T14:57:38.847Z,97791.84
2023-02-22T15:00:21.054Z,97789.56
2023-02-22T15:02:52.244Z,97791.28
2023-02-22T15:05:21.741Z,97788.53
2023-02-22T15:07:55.675Z,97790.47
2023-02-22T15:10:29.701Z,97792.03
2023-02-22T15:13:10.495Z,97793.94
2023-02-22T15:15:47.502Z,97790.38
2023-02-22T15:18:23.483Z,97796.22
2023-02-22T15:20:56.223Z,97790.09
2023-02-22T15:23:33.220Z,97788.94
2023-02-22T15:26:02.661Z,97796.16
2023-02-22T15:28:32.926Z,97795.69
2023-02-22T15:31:25.689Z,97796.19
2023-02-22T15:33:55.417Z,97793.13
2023-02-22T15:36:27.997Z,97790.41
2023-02-22T15:38:57.080Z,97796.81
2023-02-22T15:41:30.058Z,97795.28
2023-02-22T15:44:08.024Z,97800.03
2023-02-22T15:46:42.827Z,97797.81
2023-02-22T15:49:24.142Z,97802.66
2023-02-22T15:52:04.065Z,97807.41
2023-02-22T15:54:40.019Z,97799.00
2023-02-22T15:57:09.367Z,97800.88
2023-02-22T15:59:45.479Z,97801.25
2023-02-22T16:02:33.406Z,97799.13
2023-02-22T16:05:05.173Z,97793.00
2023-02-22T16:07:34.321Z,97800.28
2023-02-22T16:10:09.064Z,97805.16
2023-02-22T16:12:37.748Z,97800.78
2023-02-22T16:15:17.631Z,97805.03
2023-02-22T16:18:00.914Z,97807.88
2023-02-22T16:20:36.267Z,97806.00
2023-02-22T16:23:23.085Z,97805.03
2023-02-22T16:26:07.404Z,97808.81
2023-02-22T16:28:36.175Z,97813.78
2023-02-22T16:31:06.338Z,97813.03
2023-02-22T16:33:35.083Z,97817.16
2023-02-22T16:36:08.503Z,97813.25
2023-02-22T16:38:39.208Z,97813.72
2023-02-22T16:41:08.634Z,97810.50
2023-02-22T16:43:37.619Z,97819.38
2023-02-22T16:46:08.625Z,97819.00
2023-02-22T16:48:38.546Z,97821.94
2023-02-22T16:51:18.324Z,97810.00
2023-02-22T16:53:47.155Z,97807.63
2023-02-22T16:56:17.874Z,97812.47
2023-02-22T16:58:47.663Z,97812.91
2023-02-22T17:01:18.285Z,97812.44
2023-02-22T17:03:47.884Z,97808.41
2023-02-22T17:06:17.270Z,97810.19
2023-02-22T17:08:46.354Z,97819.13
2023-02-22T17:11:16.680Z,97816.84
2023-02-22T17:13:47.190Z,97821.56
2023-02-22T17:16:17.694Z,97814.25
2023-02-22T17:18:46.841Z,97818.69
2023-02-22T17:21:16.657Z,97819.75
2023-02-22T17:23:46.229Z,97827.97
2023-02-22T17:26:16.875Z,97827.25
2023-02-22T17:28:46.023Z,97837.75
2023-02-22T17:31:22.499Z,97845.94
2023-02-22T17:33:52.366Z,97852.41
2023-02-22T17:36:23.566Z,97856.16
2023-02-22T17:38:52.373Z,97862.25
2023-02-22T17:41:20.951Z,97860.47
2023-02-22T17:43:50.628Z,97854.06
2023-02-22T17:46:21.003Z,97851.81
2023-02-22T17:48:49.775Z,97861.34
2023-02-22T17:51:18.418Z,97866.13
2023-02-22T17:53:47.057Z,97861.81
2023-02-22T17:56:18.705Z,97861.41
2023-02-22T17:58:49.556Z,97864.06
2023-02-22T18:01:27.105Z,97863.78
2023-02-22T18:03:57.406Z,97863.91
2023-02-22T18:06:28.457Z,97870.94
2023-02-22T18:08:58.346Z,97865.25
2023-02-22T18:11:28.547Z,97871.88
2023-02-22T18:13:58.119Z,97874.91
2023-02-22T18:16:28.244Z,97870.31
2023-02-22T18:18:58.088Z,97868.88
2023-02-22T18:21:27.430Z,97869.81
2023-02-22T18:23:56.171Z,97854.97
2023-02-22T18:26:26.009Z,97874.69
2023-02-22T18:28:55.077Z,97866.38
2023-02-22T18:31:24.840Z,97872.81
2023-02-22T18:33:54.884Z,97871.56
2023-02-22T18:36:24.379Z,97865.56
2023-02-22T18:38:54.180Z,97866.16
2023-02-22T18:41:26.264Z,97861.50
2023-02-22T18:43:57.529Z,97863.34
2023-02-22T18:46:26.398Z,97855.28
2023-02-22T18:48:57.286Z,97857.84
2023-02-22T18:51:30.530Z,97856.94
2023-02-22T18:54:01.127Z,97855.38
2023-02-22T18:56:30.983Z,97861.69
2023-02-22T18:59:01.792Z,97866.34
2023-02-22T19:01:31.384Z,97867.56
2023-02-22T19:04:02.252Z,97865.28
2023-02-22T19:06:31.003Z,97865.16
2023-02-22T19:09:02.014Z,97864.25
2023-02-22T19:11:31.338Z,97867.13
2023-02-22T19:14:00.259Z,97875.00
2023-02-22T19:16:29.323Z,97862.19
2023-02-22T19:18:59.978Z,97862.50
2023-02-22T19:21:30.219Z,97861.41
2023-02-22T19:24:05.441Z,97871.56
2023-02-22T19:26:34.361Z,97870.09
2023-02-22T19:29:06.281Z,97870.09
2023-02-22T19:31:35.433Z,97872.69
2023-02-22T19:34:09.061Z,97871.75
2023-02-22T19:36:39.365Z,97874.47
2023-02-22T19:39:08.106Z,97873.63
2023-02-22T19:41:36.813Z,97886.81
2023-02-22T19:44:06.044Z,97877.53
2023-02-22T19:46:35.330Z,97889.06
2023-02-22T19:49:06.063Z,97883.59
2023-02-22T19:51:34.850Z,97876.69
2023-02-22T19:54:05.182Z,97878.81
2023-02-22T19:56:35.490Z,97882.28
2023-02-22T19:59:09.400Z,97875.47
2023-02-22T20:01:38.844Z,97883.34
2023-02-22T20:04:11.679Z,97886.19
2023-02-22T20:06:42.666Z,97879.38
2023-02-22T20:09:15.905Z,97883.59
2023-02-22T20:11:44.843Z,97886.19
2023-02-22T20:14:18.395Z,97889.25
2023-02-22T20:16:47.666Z,97890.38
2023-02-22T20:19:18.044Z,97893.06
2023-02-22T20:21:46.976Z,97890.28
2023-02-22T20:24:20.199Z,97887.72
2023-02-22T20:26:49.853Z,97884.56
2023-02-22T20:29:19.265Z,97886.44
2023-02-22T20:31:52.488Z,97893.72
2023-02-22T20:34:25.107Z,97892.34
2023-02-22T20:36:55.185Z,97902.13
2023-02-22T20:39:23.864Z,97893.66
2023-02-22T20:41:52.659Z,97892.00
2023-02-22T20:44:23.605Z,97896.34
2023-02-22T20:46:52.271Z,97897.81
2023-02-22T20:49:22.492Z,97904.00
2023-02-22T20:51:51.095Z,97906.47
2023-02-22T20:54:19.899Z,97902.41
2023-02-22T20:56:50.692Z,97904.56
2023-02-22T20:59:21.389Z,97902.97
2023-02-22T21:01:53.008Z,97905.09
2023-02-22T21:04:23.390Z,97911.47
2023-02-22T21:06:52.976Z,97915.25
2023-02-22T21:09:22.860Z,97906.94
2023-02-22T21:11:51.543Z,97906.19
2023-02-22T21:14:20.354Z,97908.78
2023-02-22T21:16:50.923Z,97901.25
2023-02-22T21:19:25.418Z,97897.91
2023-02-22T21:21:57.938Z,97903.06
2023-02-22T21:24:27.736Z,97893.94
2023-02-22T21:26:58.560Z,97899.84
2023-02-22T21:29:27.444Z,97895.69
2023-02-22T21:31:56.442Z,97899.94
2023-02-22T21:34:26.211Z,97902.88
2023-02-22T21:36:56.945Z,97902.16
2023-02-22T21:39:28.593Z,97904.81
2023-02-22T21:42:00.405Z,97904.16
2023-02-22T21:44:30.528Z,97904.53
2023-02-22T21:46:59.215Z,97903.03
2023-02-22T21:49:28.913Z,97896.31
2023-02-22T21:51:58.941Z,97901.56
2023-02-22T21:54:28.780Z,97906.56
2023-02-22T21:56:57.396Z,97902.56
2023-02-22T21:59:26.013Z,97896.75
2023-02-22T22:01:56.665Z,97898.78
2023-02-22T22:04:27.991Z,97909.00
2023-02-22T22:07:00.118Z,97903.63
2023-02-22T22:09:33.150Z,97900.50
2023-02-22T22:12:04.966Z,97895.44
2023-02-22T22:14:34.398Z,97890.59
2023-02-22T22:17:05.453Z,97899.34
2023-02-22T22:19:39.381Z,97894.94
2023-02-22T22:22:10.752Z,97894.78
2023-02-22T22:24:41.705Z,97897.50
2023-02-22T22:27:12.774Z,97884.88
2023-02-22T22:29:43.402Z,97893.28
2023-02-22T22:32:12.349Z,97895.84
2023-02-22T22:34:42.521Z,97895.00
2023-02-22T22:37:13.271Z,97892.34
2023-02-22T22:39:42.495Z,97887.25
2023-02-22T22:42:11.255Z,97891.84
2023-02-22T22:44:41.948Z,97888.72
2023-02-22T22:47:13.668Z,97893.22
2023-02-22T22:49:42.711Z,97886.41
2023-02-22T22:52:14.467Z,97882.13
2023-02-22T22:54:44.473Z,97891.72
2023-02-22T22:57:13.395Z,97888.38
2023-02-22T22:59:41.991Z,97885.91
2023-02-22T23:02:11.397Z,97886.06
2023-02-22T23:04:40.190Z,97887.06
2023-02-22T23:07:09.057Z,97892.56
2023-02-22T23:09:39.516Z,97896.06
2023-02-22T23:12:16.622Z,97896.38
2023-02-22T23:14:47.116Z,97887.00
2023-02-22T23:17:30.844Z,97900.06
2023-02-22T23:19:59.661Z,97893.72
2023-02-22T23:22:28.960Z,97903.44
2023-02-22T23:25:00.953Z,97893.56
2023-02-22T23:27:30.587Z,97894.53
2023-02-22T23:29:59.256Z,97900.09
2023-02-22T23:32:28.222Z,97894.22
2023-02-22T23:34:56.894Z,97889.06
2023-02-22T23:37:25.626Z,97889.88
2023-02-22T23:39:54.299Z,97895.72
2023-02-22T23:42:24.306Z,97892.88
2023-02-22T23:44:53.700Z,97896.97
2023-02-22T23:47:22.335Z,97892.56
2023-02-22T23:49:50.962Z,97886.50
2023-02-22T23:52:23.860Z,97892.38
2023-02-22T23:54:53.879Z,97895.72
2023-02-22T23:57:25.932Z,97899.13
2023-02-22T23:59:54.650Z,97899.22
